Hudson, NY

1:14 AM EST on February 09, 2016 (GMT -0500)
Columbia-Greene Community College | | Change Station
CLOSE
Current Station
Personal Weather Station
Location: Hudson, NY
Elevation: 161 ft
Nearby Weather Stations

Elev 161 ft 42.22 °N, 73.83 °W | Updated 12 seconds ago

Overcast
Overcast
19.0 °F
Feels Like 19.0 °F
N
2.0
Wind Variable Wind from SSW
Gusts 3.0 mph

Today
High -- | Low -- °F
--% Chance of Precip.
Yesterday
High -- | Low -- °F
Precip. -- in
Pressure 29.73 in
Visibility 9.0 miles
Clouds Overcast 4500 ft
Dew Point 17.0 °F
Humidity 95%
Rainfall in
Snow Depth Not available.
7:00 AM 5:19 PM
New Moon, 1% visible
METAR KPSF 090554Z AUTO 00000KT 9SM OVC045 M07/M08 A2968 RMK AO2 SNE02B35E54 SLP068 P0000 60005 T10671083 11061 21067 56014
Pressure 29.73 in
Visibility 9.0 miles
Clouds Overcast 4500 ft
Dew Point 17.0 °F
Humidity 95%
Rainfall in
Snow Depth Not available.
7:00 AM 5:19 PM
New Moon, 1% visible
METAR KPSF 090554Z AUTO 00000KT 9SM OVC045 M07/M08 A2968 RMK AO2 SNE02B35E54 SLP068 P0000 60005 T10671083 11061 21067 56014

10-Day Weather Forecast

Almanac

Astronomy

Feb. 09, 2016 Rise Set
Actual Time
Civil Twilight
Nautical Twilight
Astronomical Twilight
Moon
Length of Visible Light
Length of Day
Tomorrow will be .
, % of the Moon is Illuminated

Today's Extremes

State Highs State Lows

Community

WunderPhotos

Upload Photos

1,891,571 photos uploaded!

WunderBlog® & News

Nearby

Air Quality

  Air Quality AQ Index Pollutant
Not available.

Snow Depth

Station Depth Elevation

Earthquake Activity

City Distance Mag. Time & Date
Minimum magnitude displayed is 2.5.

Coastal Water Temperatures

Place Temperature

Stations

Nearby Weather Stations

Station Location Temp. Windchill Dew Point Humidity Wind Precip. Elev Updated Type
                   

Watches & Warnings

There are currently no watches in effect.